Time;durP1;ratioP1;P1;durP2;ratioP2;P2;SDS_P1;SDS_P2;PMS_P1;PMS_P2;Temp;Humidity;BMP_temperature;BMP_pressure;BME280_temperature;BME280_humidity;BME280_pressure;Samples;Min_cycle;Max_cycle;Signal;HPM_P1;HPM_P2
2020/12/04 00:01:13;;;;;;;18.67;13.80;;;2.30;99.90;;;;;;5014814;28;20197;-72
2020/12/04 00:03:38;;;;;;;19.43;14.30;;;2.30;99.90;;;;;;5030261;28;20240;-73
2020/12/04 00:06:04;;;;;;;20.13;14.30;;;2.30;99.90;;;;;;5030409;28;20205;-71
2020/12/04 00:08:29;;;;;;;18.37;13.40;;;2.40;99.90;;;;;;5030325;28;20205;-73
2020/12/04 00:10:55;;;;;;;18.10;12.73;;;2.40;99.90;;;;;;5030246;28;20728;-71
2020/12/04 00:13:20;;;;;;;19.60;13.70;;;2.40;99.90;;;;;;5030647;28;20227;-71
2020/12/04 00:15:46;;;;;;;17.00;13.23;;;2.40;99.90;;;;;;5026624;28;20178;-72
2020/12/04 00:18:11;;;;;;;17.43;13.17;;;2.40;99.90;;;;;;5014452;28;20245;-72
2020/12/04 00:20:37;;;;;;;21.50;13.70;;;2.40;99.90;;;;;;5029930;28;20318;-71
2020/12/04 00:23:03;;;;;;;17.80;12.63;;;2.40;99.90;;;;;;5028538;28;20295;-72
2020/12/04 00:25:28;;;;;;;20.63;13.47;;;2.40;99.90;;;;;;5016901;28;20546;-71
2020/12/04 00:27:54;;;;;;;16.37;12.77;;;2.40;99.90;;;;;;5030076;28;20249;-71
2020/12/04 00:30:19;;;;;;;16.80;13.20;;;2.40;99.90;;;;;;5021297;28;20213;-71
2020/12/04 00:32:45;;;;;;;19.40;14.40;;;2.30;99.90;;;;;;5023648;28;20578;-72
2020/12/04 00:35:10;;;;;;;19.63;13.20;;;2.30;99.90;;;;;;5026988;28;20178;-73
2020/12/04 00:37:36;;;;;;;19.97;14.40;;;2.30;99.90;;;;;;5029385;28;20185;-71
2020/12/04 00:40:02;;;;;;;22.03;14.53;;;2.20;99.90;;;;;;5019689;28;20693;-71
2020/12/04 00:42:27;;;;;;;21.50;14.83;;;2.20;99.90;;;;;;5030482;28;20664;-71
2020/12/04 00:44:53;;;;;;;17.90;12.40;;;2.20;99.90;;;;;;5016317;28;20475;-72
2020/12/04 00:47:18;;;;;;;21.43;14.30;;;2.20;99.90;;;;;;5030471;28;20177;-73
2020/12/04 00:49:44;;;;;;;21.50;13.70;;;2.10;99.90;;;;;;5024247;28;20798;-72
2020/12/04 00:52:09;;;;;;;16.63;13.47;;;2.10;99.90;;;;;;5034184;28;20201;-72
2020/12/04 00:54:35;;;;;;;18.13;12.60;;;2.10;99.90;;;;;;5033845;28;20190;-71
2020/12/04 00:57:00;;;;;;;20.07;13.37;;;2.10;99.90;;;;;;5033850;28;20182;-73
2020/12/04 00:59:26;;;;;;;18.43;13.20;;;2.10;99.90;;;;;;5032992;28;20170;-71
2020/12/04 01:01:52;;;;;;;17.50;12.63;;;2.10;99.90;;;;;;5020067;28;20668;-72
2020/12/04 01:04:17;;;;;;;19.73;14.60;;;2.10;99.90;;;;;;5033812;28;20202;-71
2020/12/04 01:06:43;;;;;;;18.77;13.37;;;2.10;99.90;;;;;;5031645;28;20548;-72
2020/12/04 01:09:08;;;;;;;20.63;13.30;;;2.10;99.90;;;;;;5033316;28;20705;-71
2020/12/04 01:11:34;;;;;;;18.87;13.60;;;2.10;99.90;;;;;;5033855;28;20205;-72
2020/12/04 01:14:00;;;;;;;18.63;13.63;;;2.10;99.90;;;;;;5033669;28;20174;-72
2020/12/04 01:16:26;;;;;;;25.03;14.00;;;2.10;99.90;;;;;;5029845;28;20183;-71
2020/12/04 01:18:51;;;;;;;16.83;13.33;;;2.10;99.90;;;;;;5032608;28;20804;-72
2020/12/04 01:21:17;;;;;;;24.77;15.20;;;2.10;99.90;;;;;;5023236;28;20602;-72
2020/12/04 01:23:43;;;;;;;18.60;14.40;;;2.20;99.90;;;;;;5033516;28;20213;-72
2020/12/04 01:26:08;;;;;;;21.33;16.17;;;2.20;99.90;;;;;;5032636;28;20534;-72
2020/12/04 01:28:34;;;;;;;23.73;16.00;;;2.10;99.90;;;;;;5033221;28;20174;-72
2020/12/04 01:31:00;;;;;;;18.73;13.07;;;2.10;99.90;;;;;;5022473;28;20209;-72
2020/12/04 01:33:26;;;;;;;19.97;13.90;;;2.10;99.90;;;;;;5032696;28;20436;-72
2020/12/04 01:35:51;;;;;;;19.70;14.17;;;2.10;99.90;;;;;;5032910;28;20186;-73
2020/12/04 01:38:17;;;;;;;16.57;13.90;;;2.00;99.90;;;;;;5030817;28;20183;-72
2020/12/04 01:40:42;;;;;;;19.13;13.20;;;2.00;99.90;;;;;;5029724;28;20217;-71
2020/12/04 01:43:08;;;;;;;22.23;14.83;;;1.90;99.90;;;;;;5032487;28;20567;-71
2020/12/04 01:45:37;;;;;;;22.53;13.60;;;1.90;99.90;;;;;;5033207;28;20178;-71
2020/12/04 01:48:04;;;;;;;23.97;16.33;;;1.90;99.90;;;;;;5032834;28;20175;-71
2020/12/04 01:50:30;;;;;;;21.43;13.70;;;1.90;99.90;;;;;;5032643;28;20429;-73
2020/12/04 01:52:57;;;;;;;26.53;16.30;;;1.90;99.90;;;;;;5018569;28;20442;-72
2020/12/04 01:55:23;;;;;;;21.00;15.27;;;1.90;99.90;;;;;;5029698;28;20437;-72
2020/12/04 01:57:52;;;;;;;23.80;15.20;;;1.90;99.90;;;;;;5032260;28;20436;-71
2020/12/04 02:00:19;;;;;;;22.40;15.10;;;1.90;99.90;;;;;;5031350;28;20441;-71
2020/12/04 02:02:46;;;;;;;21.20;14.30;;;1.90;99.90;;;;;;5018362;28;20440;-71
2020/12/04 02:05:11;;;;;;;23.70;15.27;;;1.90;99.90;;;;;;5032008;28;20456;-71
2020/12/04 02:07:45;;;;;;;19.70;13.33;;;1.80;99.90;;;;;;5032597;28;20464;-71
2020/12/04 02:10:23;;;;;;;19.70;14.30;;;1.80;99.90;;;;;;5022659;28;20202;-71
2020/12/04 02:12:50;;;;;;;22.20;14.73;;;1.80;99.90;;;;;;5028589;28;20433;-72
2020/12/04 02:15:17;;;;;;;19.97;13.50;;;1.80;99.90;;;;;;5027687;28;20495;-71
2020/12/04 02:17:44;;;;;;;23.17;14.17;;;1.80;99.90;;;;;;5032338;28;20582;-71
2020/12/04 02:20:11;;;;;;;24.80;13.77;;;1.90;99.90;;;;;;5027258;28;20528;-71
2020/12/04 02:22:37;;;;;;;21.53;14.50;;;1.90;99.90;;;;;;5032522;28;20467;-73
2020/12/04 02:25:08;;;;;;;23.83;16.27;;;2.00;99.90;;;;;;5020601;28;20433;-72
2020/12/04 02:27:42;;;;;;;21.73;14.90;;;2.00;99.90;;;;;;5032258;28;20437;-71
2020/12/04 02:30:09;;;;;;;22.33;16.10;;;2.00;99.90;;;;;;5023228;28;20424;-71
2020/12/04 02:32:35;;;;;;;22.97;14.30;;;2.10;99.90;;;;;;5025624;28;20456;-72
2020/12/04 02:35:00;;;;;;;16.40;13.13;;;2.10;99.90;;;;;;5032129;28;20523;-71
2020/12/04 02:37:28;;;;;;;21.87;15.80;;;2.10;99.90;;;;;;5027474;28;20228;-71
2020/12/04 02:39:54;;;;;;;21.70;15.53;;;2.00;99.90;;;;;;5031221;28;20190;-71
2020/12/04 02:42:19;;;;;;;22.23;15.60;;;2.00;99.90;;;;;;5031896;28;20464;-71
2020/12/04 02:44:45;;;;;;;22.60;15.57;;;1.90;99.90;;;;;;5018758;28;20593;-73
2020/12/04 02:47:10;;;;;;;30.17;16.57;;;1.90;99.90;;;;;;5028182;28;20174;-71
2020/12/04 02:49:36;;;;;;;21.73;14.77;;;2.00;99.90;;;;;;5029919;28;20181;-72
2020/12/04 02:52:01;;;;;;;25.90;13.57;;;2.00;99.90;;;;;;5031349;28;20233;-72
2020/12/04 02:54:27;;;;;;;23.00;14.50;;;1.90;99.90;;;;;;5031876;28;20182;-72
2020/12/04 02:56:53;;;;;;;19.90;14.40;;;1.90;99.90;;;;;;5031871;28;20178;-71
2020/12/04 02:59:18;;;;;;;22.00;15.33;;;1.90;99.90;;;;;;5028581;28;20202;-71
2020/12/04 03:01:44;;;;;;;19.60;14.57;;;1.80;99.90;;;;;;5024530;28;20694;-73
2020/12/04 03:04:09;;;;;;;27.80;16.27;;;1.80;99.90;;;;;;5031210;28;20713;-71
2020/12/04 03:06:35;;;;;;;23.60;16.13;;;1.80;99.90;;;;;;5020264;28;20183;-71
2020/12/04 03:09:01;;;;;;;19.97;13.20;;;1.80;99.90;;;;;;5026944;28;20589;-72
2020/12/04 03:11:27;;;;;;;20.30;14.00;;;1.90;99.90;;;;;;5019603;28;20240;-71
2020/12/04 03:13:52;;;;;;;22.07;15.43;;;1.90;99.90;;;;;;5031435;28;20437;-72
2020/12/04 03:16:18;;;;;;;23.93;15.70;;;1.90;99.90;;;;;;5031081;28;20324;-71
2020/12/04 03:18:43;;;;;;;22.47;15.70;;;1.90;99.90;;;;;;5021066;28;20186;-71
2020/12/04 03:21:09;;;;;;;21.97;16.07;;;1.90;99.90;;;;;;5031078;28;20393;-71
2020/12/04 03:23:35;;;;;;;21.97;15.47;;;1.90;99.90;;;;;;5031189;28;20197;-72
2020/12/04 03:26:00;;;;;;;21.57;15.43;;;1.90;99.90;;;;;;5031320;28;20178;-71
2020/12/04 03:28:26;;;;;;;23.87;16.20;;;1.90;99.90;;;;;;5026640;28;20178;-72
2020/12/04 03:30:52;;;;;;;23.70;15.13;;;2.00;99.90;;;;;;5025471;28;20626;-72
2020/12/04 03:33:17;;;;;;;20.47;15.50;;;2.10;99.90;;;;;;5030840;28;20615;-71
2020/12/04 03:35:43;;;;;;;19.93;14.40;;;2.20;99.90;;;;;;5031089;28;20429;-72
2020/12/04 03:38:09;;;;;;;22.53;14.87;;;2.30;99.90;;;;;;5025210;28;20177;-72
2020/12/04 03:40:34;;;;;;;22.77;16.30;;;2.40;99.90;;;;;;5030452;28;20243;-72
2020/12/04 03:43:00;;;;;;;20.70;14.93;;;2.40;99.90;;;;;;5030924;28;20288;-72
2020/12/04 03:45:25;;;;;;;19.20;14.00;;;2.40;99.90;;;;;;5030980;28;20182;-71
2020/12/04 03:47:51;;;;;;;17.57;13.43;;;2.40;99.90;;;;;;5021443;28;20171;-72
2020/12/04 03:50:16;;;;;;;19.90;12.20;;;2.40;99.90;;;;;;5019228;28;20175;-73
2020/12/04 03:52:42;;;;;;;20.90;14.97;;;2.50;99.90;;;;;;5029832;28;20216;-72
2020/12/04 03:55:07;;;;;;;23.10;16.23;;;2.40;99.90;;;;;;5030903;28;20174;-71
2020/12/04 03:57:33;;;;;;;22.80;15.33;;;2.50;99.90;;;;;;5019250;28;20193;-72
2020/12/04 03:59:58;;;;;;;20.13;14.47;;;2.50;99.90;;;;;;5025071;28;20172;-71
2020/12/04 04:02:24;;;;;;;19.17;13.53;;;2.60;99.90;;;;;;5030800;28;20655;-71
2020/12/04 04:04:50;;;;;;;19.30;13.20;;;2.60;99.90;;;;;;5014314;28;20210;-71
2020/12/04 04:07:16;;;;;;;20.10;14.87;;;2.60;99.90;;;;;;5020924;28;20185;-71
2020/12/04 04:09:42;;;;;;;19.00;13.40;;;2.60;99.90;;;;;;5030513;28;20180;-71
2020/12/04 04:12:08;;;;;;;17.97;12.73;;;2.70;99.90;;;;;;5030668;28;20186;-71
2020/12/04 04:14:34;;;;;;;14.50;11.50;;;2.70;99.90;;;;;;5014600;28;20444;-72
2020/12/04 04:17:00;;;;;;;19.03;12.73;;;2.70;99.90;;;;;;5030425;28;20433;-71
2020/12/04 04:19:25;;;;;;;16.23;11.23;;;2.70;99.90;;;;;;5023084;28;20181;-73
2020/12/04 04:21:51;;;;;;;19.53;11.90;;;2.70;99.90;;;;;;5030472;28;20343;-72
2020/12/04 04:24:16;;;;;;;14.63;12.30;;;2.70;99.90;;;;;;5021901;28;20202;-72
2020/12/04 04:26:42;;;;;;;13.60;11.10;;;2.70;99.90;;;;;;5020708;28;20668;-71
2020/12/04 04:29:07;;;;;;;13.20;11.10;;;2.80;99.90;;;;;;5033430;28;20585;-71
2020/12/04 04:31:33;;;;;;;14.20;12.07;;;2.80;99.90;;;;;;5032644;28;20205;-72
2020/12/04 04:33:58;;;;;;;16.87;12.13;;;2.80;99.90;;;;;;5034478;28;20863;-71
2020/12/04 04:36:24;;;;;;;19.10;12.20;;;2.90;99.90;;;;;;5032504;28;20181;-73
2020/12/04 04:38:49;;;;;;;18.53;11.67;;;2.90;99.90;;;;;;5033148;28;20309;-72
2020/12/04 04:41:15;;;;;;;14.23;11.67;;;2.90;99.90;;;;;;5031004;28;20679;-72
2020/12/04 04:43:40;;;;;;;14.43;11.17;;;2.90;99.90;;;;;;5033953;28;20201;-72
2020/12/04 04:46:24;;;;;;;18.57;12.83;;;2.80;99.90;;;;;;5034208;28;20182;-72
2020/12/04 04:48:56;;;;;;;18.57;11.67;;;2.80;99.90;;;;;;5026060;28;20179;-71
2020/12/04 04:51:23;;;;;;;17.90;12.83;;;2.90;99.90;;;;;;5030079;28;20445;-71
2020/12/04 04:53:57;;;;;;;25.07;14.30;;;2.90;99.90;;;;;;5032564;28;20440;-72
2020/12/04 04:56:23;;;;;;;17.30;12.27;;;2.90;99.90;;;;;;5024693;28;20437;-73
2020/12/04 04:58:49;;;;;;;20.57;13.40;;;3.00;99.90;;;;;;5029221;28;20437;-71
2020/12/04 05:01:15;;;;;;;15.33;12.53;;;3.00;99.90;;;;;;5026176;28;20460;-71
2020/12/04 05:03:41;;;;;;;17.40;11.10;;;3.00;99.90;;;;;;5033293;28;20452;-71
2020/12/04 05:06:06;;;;;;;17.20;12.60;;;3.00;99.90;;;;;;5029826;28;20192;-72
2020/12/04 05:08:32;;;;;;;16.90;13.50;;;3.00;99.90;;;;;;5025688;28;20175;-72
2020/12/04 05:11:08;;;;;;;18.70;12.83;;;3.00;99.90;;;;;;5033387;28;20221;-71
2020/12/04 05:13:34;;;;;;;19.53;13.67;;;3.00;99.90;;;;;;5032478;28;20188;-72
2020/12/04 05:16:00;;;;;;;21.07;11.77;;;2.90;99.90;;;;;;5033139;28;20437;-72
2020/12/04 05:18:26;;;;;;;21.97;14.17;;;3.00;99.90;;;;;;5028548;28;20443;-73
2020/12/04 05:20:53;;;;;;;15.17;11.13;;;3.00;99.90;;;;;;5020485;28;20261;-72
2020/12/04 05:23:19;;;;;;;21.87;13.67;;;3.00;99.90;;;;;;5031601;28;20212;-72
2020/12/04 05:25:48;;;;;;;13.47;10.50;;;3.00;99.90;;;;;;5033190;28;20930;-72
2020/12/04 05:28:18;;;;;;;17.03;12.27;;;2.90;99.90;;;;;;5032972;28;20170;-72
2020/12/04 05:30:46;;;;;;;15.93;11.40;;;3.00;99.90;;;;;;5024634;28;20484;-72
2020/12/04 05:33:12;;;;;;;16.40;12.03;;;3.10;99.90;;;;;;5018884;28;20437;-73
2020/12/04 05:35:39;;;;;;;15.57;12.20;;;3.00;99.90;;;;;;5033559;28;20801;-72
2020/12/04 05:38:07;;;;;;;15.47;10.80;;;2.90;99.90;;;;;;5027654;28;20835;-72
2020/12/04 05:40:34;;;;;;;15.70;10.67;;;2.90;99.90;;;;;;5031901;28;20541;-72
2020/12/04 05:43:00;;;;;;;15.47;12.30;;;2.90;99.90;;;;;;5036093;28;20433;-72
2020/12/04 05:45:25;;;;;;;16.90;11.00;;;2.90;99.90;;;;;;5033178;28;20439;-72
2020/12/04 05:47:51;;;;;;;13.20;11.00;;;2.90;99.90;;;;;;5032900;28;20255;-72
2020/12/04 05:50:17;;;;;;;13.27;10.57;;;3.00;99.90;;;;;;5032983;28;20182;-72
2020/12/04 05:52:42;;;;;;;17.40;10.60;;;3.00;99.90;;;;;;5032848;28;20225;-73
2020/12/04 05:55:09;;;;;;;13.10;10.10;;;3.00;99.90;;;;;;5033112;28;20189;-72
2020/12/04 05:57:59;;;;;;;12.33;9.70;;;2.90;99.90;;;;;;5032253;28;20214;-72
2020/12/04 06:00:26;;;;;;;12.40;10.00;;;2.90;99.90;;;;;;5030476;28;20451;-73
2020/12/04 06:03:03;;;;;;;16.23;10.97;;;2.80;99.90;;;;;;5032256;28;20448;-73
2020/12/04 06:05:29;;;;;;;14.57;10.73;;;2.80;99.90;;;;;;5032760;28;20433;-73
2020/12/04 06:08:01;;;;;;;13.13;10.47;;;2.90;99.90;;;;;;5032294;28;20440;-72
2020/12/04 06:10:29;;;;;;;15.10;10.33;;;2.80;99.90;;;;;;5032236;28;20476;-72
2020/12/04 06:12:54;;;;;;;14.73;11.30;;;2.80;99.90;;;;;;5030963;28;20439;-72
2020/12/04 06:15:29;;;;;;;20.63;11.90;;;2.80;99.90;;;;;;5032432;28;20841;-72
2020/12/04 06:18:07;;;;;;;15.20;9.83;;;2.80;99.90;;;;;;5032147;28;20227;-72
2020/12/04 06:20:41;;;;;;;18.53;11.80;;;2.80;99.90;;;;;;5032153;28;20472;-72
2020/12/04 06:23:09;;;;;;;14.73;11.37;;;2.80;99.90;;;;;;5032231;28;20551;-72
2020/12/04 06:26:00;;;;;;;13.57;11.47;;;2.80;99.90;;;;;;5031906;28;20433;-72
2020/12/04 06:28:28;;;;;;;15.13;11.50;;;2.70;99.90;;;;;;5024531;28;20444;-72
2020/12/04 06:31:17;;;;;;;18.97;12.97;;;2.70;99.90;;;;;;5031986;28;20503;-72
2020/12/04 06:33:50;;;;;;;24.10;12.90;;;2.70;99.90;;;;;;5030449;28;20447;-72
2020/12/04 06:36:30;;;;;;;19.47;12.50;;;2.70;99.90;;;;;;5028867;28;20446;-72
2020/12/04 06:38:58;;;;;;;20.57;13.30;;;2.70;99.90;;;;;;5031109;28;20445;-72
2020/12/04 06:41:29;;;;;;;20.40;12.80;;;2.70;99.90;;;;;;5031055;28;20476;-72
2020/12/04 06:43:56;;;;;;;27.93;11.80;;;2.80;99.90;;;;;;5030253;28;20855;-72
2020/12/04 06:46:32;;;;;;;14.53;11.80;;;2.80;99.90;;;;;;5029706;28;20858;-72
2020/12/04 06:49:34;;;;;;;19.50;12.53;;;2.80;99.90;;;;;;5012924;28;20441;-72
2020/12/04 06:52:08;;;;;;;19.23;13.00;;;2.80;99.90;;;;;;5028398;28;20472;-72
2020/12/04 06:54:38;;;;;;;14.37;11.40;;;2.80;99.90;;;;;;5031696;28;20938;-72
2020/12/04 06:57:04;;;;;;;18.00;12.33;;;2.90;99.90;;;;;;5025846;28;20777;-72
2020/12/04 06:59:32;;;;;;;16.30;12.50;;;2.80;99.90;;;;;;5031107;28;20467;-72
2020/12/04 07:02:11;;;;;;;22.17;14.23;;;2.80;99.90;;;;;;5040395;28;20472;-72
2020/12/04 07:04:44;;;;;;;19.40;13.70;;;2.80;99.90;;;;;;5031448;28;20496;-72
2020/12/04 07:07:17;;;;;;;21.33;13.70;;;2.70;99.90;;;;;;5026188;28;20459;-72
2020/12/04 07:09:52;;;;;;;23.60;13.67;;;2.70;99.90;;;;;;5028475;28;20430;-72
2020/12/04 07:12:20;;;;;;;20.47;12.10;;;2.60;99.90;;;;;;5031083;28;20467;-71
2020/12/04 07:14:48;;;;;;;23.23;14.70;;;2.70;99.90;;;;;;5031191;28;21272;-73
2020/12/04 07:17:15;;;;;;;23.40;15.47;;;2.70;99.90;;;;;;5030351;28;20433;-73
2020/12/04 07:19:45;;;;;;;20.17;14.97;;;2.70;99.90;;;;;;5030749;28;20456;-73
2020/12/04 07:22:10;;;;;;;26.87;16.60;;;2.80;99.90;;;;;;5012154;28;20480;-72
2020/12/04 07:24:36;;;;;;;23.30;17.77;;;2.80;99.90;;;;;;5023793;28;20461;-72
2020/12/04 07:27:01;;;;;;;16.80;14.27;;;2.90;99.90;;;;;;5028290;28;20185;-72
2020/12/04 07:29:27;;;;;;;25.70;15.40;;;3.00;99.90;;;;;;5012100;28;20178;-70
2020/12/04 07:31:54;;;;;;;23.40;16.97;;;3.10;99.90;;;;;;5015702;28;20335;-70
2020/12/04 07:34:24;;;;;;;18.77;14.30;;;3.20;99.90;;;;;;5029895;28;20792;-70
2020/12/04 07:36:53;;;;;;;20.63;15.10;;;3.20;99.90;;;;;;5016608;28;20449;-70
2020/12/04 07:39:24;;;;;;;20.23;14.87;;;3.20;99.90;;;;;;5024157;28;21264;-70
2020/12/04 07:41:49;;;;;;;20.13;15.97;;;3.30;99.90;;;;;;5030617;28;20492;-70
2020/12/04 07:44:15;;;;;;;15.50;12.40;;;3.40;99.90;;;;;;5030082;28;20554;-70
2020/12/04 07:46:42;;;;;;;16.53;12.93;;;3.40;99.90;;;;;;5040695;28;20651;-70
2020/12/04 07:49:12;;;;;;;23.57;13.77;;;3.30;99.90;;;;;;5036295;28;20964;-70
2020/12/04 07:51:40;;;;;;;18.27;13.60;;;3.30;99.90;;;;;;5030212;28;20536;-70
2020/12/04 07:54:21;;;;;;;21.60;14.90;;;3.30;99.90;;;;;;5030706;28;20437;-70
2020/12/04 07:56:52;;;;;;;21.33;15.80;;;3.20;99.90;;;;;;5030430;28;20437;-70
2020/12/04 07:59:26;;;;;;;16.67;13.43;;;3.20;99.90;;;;;;5028164;28;20441;-70
2020/12/04 08:01:51;;;;;;;16.50;13.40;;;3.20;99.90;;;;;;5030183;28;20527;-70
2020/12/04 08:04:18;;;;;;;19.73;15.30;;;3.20;99.90;;;;;;5029772;28;20990;-70
2020/12/04 08:06:48;;;;;;;19.03;13.40;;;3.30;99.90;;;;;;5021071;28;20182;-71
2020/12/04 08:09:16;;;;;;;18.30;13.03;;;3.30;99.90;;;;;;5029919;28;20433;-70
2020/12/04 08:11:53;;;;;;;18.63;12.63;;;3.40;99.90;;;;;;5006006;28;20506;-70
2020/12/04 08:14:38;;;;;;;23.07;14.50;;;3.40;99.90;;;;;;5034860;28;20827;-70
2020/12/04 08:17:06;;;;;;;22.60;14.47;;;3.50;99.90;;;;;;5029994;28;20460;-70
2020/12/04 08:19:34;;;;;;;21.50;14.17;;;3.60;99.90;;;;;;5033503;28;20991;-70
2020/12/04 08:22:08;;;;;;;23.70;15.50;;;3.60;99.90;;;;;;5029939;28;20452;-70
2020/12/04 08:24:39;;;;;;;20.60;14.00;;;3.70;99.90;;;;;;5030154;28;20464;-70
2020/12/04 08:27:13;;;;;;;20.83;14.43;;;3.80;99.90;;;;;;5028650;28;20437;-70
2020/12/04 08:29:43;;;;;;;21.50;15.10;;;3.70;99.90;;;;;;5017403;28;20425;-69
2020/12/04 08:32:22;;;;;;;23.70;13.73;;;3.80;99.90;;;;;;5027220;28;20441;-70
2020/12/04 08:34:49;;;;;;;48.50;27.00;;;3.90;99.90;;;;;;5029577;28;20506;-69
2020/12/04 08:37:17;;;;;;;29.40;18.80;;;4.00;99.90;;;;;;5030128;28;20429;-69
2020/12/04 08:39:49;;;;;;;23.77;17.83;;;4.00;99.90;;;;;;5026849;28;20444;-70
2020/12/04 08:42:21;;;;;;;21.53;15.20;;;4.10;99.90;;;;;;5029049;28;20452;-70
2020/12/04 08:44:58;;;;;;;22.13;14.20;;;4.20;99.90;;;;;;5048154;28;20551;-70
2020/12/04 08:47:32;;;;;;;19.40;13.67;;;4.20;99.90;;;;;;5028939;28;20433;-71
2020/12/04 08:50:03;;;;;;;26.37;15.30;;;4.50;99.90;;;;;;5029737;28;20424;-69
2020/12/04 08:52:53;;;;;;;21.70;15.80;;;4.60;99.90;;;;;;5028560;28;20871;-68
2020/12/04 08:55:24;;;;;;;21.93;14.80;;;4.70;99.90;;;;;;5030371;28;20413;-67
2020/12/04 08:57:52;;;;;;;17.70;15.20;;;4.60;99.90;;;;;;5032309;28;20437;-68
2020/12/04 09:00:20;;;;;;;22.13;14.70;;;4.50;99.90;;;;;;5035098;28;21002;-67
2020/12/04 09:02:46;;;;;;;19.40;14.83;;;4.40;99.90;;;;;;5010616;28;20449;-68
2020/12/04 09:05:14;;;;;;;23.90;15.03;;;4.40;99.90;;;;;;5027842;28;20487;-68
2020/12/04 09:07:40;;;;;;;26.67;15.10;;;4.30;99.90;;;;;;5025415;28;20444;-69
2020/12/04 09:10:08;;;;;;;24.43;15.10;;;4.30;99.90;;;;;;5036743;28;20500;-70
2020/12/04 09:12:34;;;;;;;21.70;14.63;;;4.20;99.90;;;;;;5032063;28;20456;-71
2020/12/04 09:15:00;;;;;;;19.87;14.10;;;4.10;99.90;;;;;;5032728;28;20999;-70
2020/12/04 09:17:26;;;;;;;17.57;13.37;;;4.10;99.90;;;;;;5032808;28;20445;-71
2020/12/04 09:19:51;;;;;;;22.00;14.90;;;4.10;99.90;;;;;;5020302;28;20184;-71
2020/12/04 09:22:17;;;;;;;18.93;13.57;;;4.10;99.90;;;;;;5026832;28;20609;-72
2020/12/04 09:24:43;;;;;;;19.93;14.30;;;4.20;99.90;;;;;;5031417;28;20206;-71
2020/12/04 09:27:09;;;;;;;17.63;14.00;;;4.30;99.90;;;;;;5029670;28;20212;-71
2020/12/04 09:29:35;;;;;;;21.90;13.63;;;4.50;99.90;;;;;;5026348;28;20433;-71
2020/12/04 09:32:27;;;;;;;20.80;14.83;;;4.60;99.90;;;;;;5028844;28;20686;-71
2020/12/04 09:34:53;;;;;;;24.43;16.27;;;4.70;99.90;;;;;;5030352;28;21188;-71
2020/12/04 09:37:29;;;;;;;21.90;14.10;;;4.80;99.90;;;;;;5032400;28;20982;-71
2020/12/04 09:40:05;;;;;;;19.20;15.37;;;4.90;99.90;;;;;;5031098;28;20811;-70
2020/12/04 09:42:30;;;;;;;27.93;17.47;;;4.90;99.90;;;;;;5031422;28;20452;-67
2020/12/04 09:44:56;;;;;;;19.57;12.73;;;5.00;99.90;;;;;;5032392;28;20861;-70
2020/12/04 09:47:24;;;;;;;16.77;12.77;;;5.00;99.90;;;;;;5030505;28;20174;-70
2020/12/04 09:49:50;;;;;;;17.70;12.67;;;5.10;99.90;;;;;;5031850;28;20429;-71
2020/12/04 09:52:17;;;;;;;15.63;12.57;;;5.10;99.90;;;;;;5031501;28;20544;-70
2020/12/04 09:54:45;;;;;;;20.33;13.03;;;5.20;99.90;;;;;;5031967;28;20482;-70
2020/12/04 09:57:12;;;;;;;23.40;16.83;;;5.20;99.90;;;;;;5019229;28;20433;-71
2020/12/04 09:59:39;;;;;;;19.23;13.90;;;5.20;99.90;;;;;;5031347;28;20440;-71
2020/12/04 10:02:05;;;;;;;15.17;12.23;;;5.20;99.90;;;;;;5030500;28;20803;-71
2020/12/04 10:04:31;;;;;;;32.77;13.40;;;5.00;99.90;;;;;;5032750;28;20461;-71
2020/12/04 10:06:57;;;;;;;15.13;13.13;;;4.90;99.90;;;;;;5034443;28;20440;-71
2020/12/04 10:09:25;;;;;;;17.17;13.90;;;4.80;99.90;;;;;;5040397;28;20232;-70
2020/12/04 10:11:52;;;;;;;19.10;12.00;;;4.70;99.90;;;;;;5036599;28;20455;-71
2020/12/04 10:14:18;;;;;;;14.17;11.80;;;4.90;99.90;;;;;;5031758;28;20522;-71
2020/12/04 10:16:45;;;;;;;21.40;13.57;;;4.80;99.90;;;;;;5032347;28;20934;-71
2020/12/04 10:19:13;;;;;;;16.30;12.70;;;4.70;99.90;;;;;;5031865;28;20531;-71
2020/12/04 10:21:39;;;;;;;19.93;13.00;;;4.70;99.90;;;;;;5031064;28;20465;-71
2020/12/04 10:24:05;;;;;;;15.40;11.90;;;4.60;99.90;;;;;;5031417;28;20465;-71
2020/12/04 10:26:36;;;;;;;17.27;13.33;;;4.40;99.90;;;;;;5032322;28;20435;-71
2020/12/04 10:29:02;;;;;;;17.43;12.93;;;4.40;99.90;;;;;;5032020;28;20425;-70
2020/12/04 10:31:28;;;;;;;16.13;13.00;;;4.40;99.90;;;;;;5028242;28;20454;-71
2020/12/04 10:33:53;;;;;;;17.63;13.17;;;4.40;99.90;;;;;;5016733;28;20486;-71
2020/12/04 10:36:19;;;;;;;18.83;13.50;;;4.50;99.90;;;;;;5019624;28;20224;-70
2020/12/04 10:38:44;;;;;;;21.10;13.20;;;4.60;99.90;;;;;;5029157;28;20186;-72
2020/12/04 10:41:10;;;;;;;19.70;13.93;;;4.70;99.90;;;;;;5023531;28;20237;-72
2020/12/04 10:43:36;;;;;;;20.17;14.10;;;4.80;99.90;;;;;;5016482;28;20215;-70
2020/12/04 10:46:01;;;;;;;20.90;14.80;;;4.90;99.90;;;;;;5019148;28;20730;-72
2020/12/04 10:48:27;;;;;;;20.83;13.80;;;4.90;99.90;;;;;;5028426;28;20249;-70
2020/12/04 10:50:52;;;;;;;18.27;13.00;;;4.80;99.90;;;;;;5021575;28;20605;-70
2020/12/04 10:53:22;;;;;;;19.33;13.40;;;4.90;99.90;;;;;;5031202;28;20178;-71
2020/12/04 10:55:47;;;;;;;19.50;13.90;;;5.00;99.90;;;;;;5024906;28;20178;-70
2020/12/04 10:58:13;;;;;;;21.43;15.93;;;5.10;99.90;;;;;;5028828;28;21185;-70
2020/12/04 11:00:39;;;;;;;22.07;14.00;;;5.00;99.90;;;;;;5016526;28;20203;-70
2020/12/04 11:03:17;;;;;;;24.40;13.47;;;4.90;99.90;;;;;;5021864;28;20173;-70
2020/12/04 11:05:44;;;;;;;17.50;13.57;;;4.80;99.90;;;;;;5019872;28;20175;-73
2020/12/04 11:08:10;;;;;;;19.47;12.70;;;4.90;99.90;;;;;;5020899;28;20440;-70
2020/12/04 11:10:36;;;;;;;18.13;13.63;;;5.00;99.90;;;;;;5030434;28;20444;-70
2020/12/04 11:13:03;;;;;;;17.10;14.23;;;5.00;99.90;;;;;;5030484;28;20178;-69
2020/12/04 11:15:29;;;;;;;21.70;14.00;;;5.00;99.90;;;;;;5028777;28;20919;-70
2020/12/04 11:17:55;;;;;;;32.57;18.20;;;5.10;99.90;;;;;;5020217;28;20429;-71
2020/12/04 11:20:22;;;;;;;24.23;17.00;;;5.10;99.90;;;;;;5030021;28;20786;-71
2020/12/04 11:22:48;;;;;;;27.10;17.27;;;5.10;99.90;;;;;;5016112;28;20202;-71
2020/12/04 11:25:14;;;;;;;22.20;14.40;;;5.20;99.90;;;;;;5016210;28;20497;-71
2020/12/04 11:27:43;;;;;;;26.10;15.40;;;5.30;99.90;;;;;;5020057;28;20460;-71
2020/12/04 11:30:12;;;;;;;20.67;13.70;;;5.20;99.90;;;;;;5020381;28;20179;-71
2020/12/04 11:32:39;;;;;;;19.83;12.60;;;5.10;99.90;;;;;;5030327;28;20459;-70
2020/12/04 11:35:04;;;;;;;22.47;14.10;;;5.00;99.90;;;;;;5024408;28;20437;-70
2020/12/04 11:37:30;;;;;;;15.80;11.17;;;5.10;99.90;;;;;;5024736;28;20895;-71
2020/12/04 11:39:55;;;;;;;15.30;11.30;;;5.10;99.90;;;;;;5029288;28;20194;-71
2020/12/04 11:42:21;;;;;;;19.63;14.00;;;5.20;99.90;;;;;;5027035;28;20281;-71
2020/12/04 11:44:47;;;;;;;20.93;15.00;;;5.30;99.90;;;;;;5020456;28;20247;-71
2020/12/04 11:47:12;;;;;;;26.13;16.90;;;5.40;99.90;;;;;;5030087;28;20217;-71
2020/12/04 11:49:38;;;;;;;23.40;14.80;;;5.50;99.90;;;;;;5040277;28;20201;-67
2020/12/04 11:52:03;;;;;;;21.00;14.27;;;5.50;99.90;;;;;;5030408;28;20264;-69
2020/12/04 11:54:29;;;;;;;20.30;13.63;;;5.50;99.90;;;;;;5030572;28;20214;-68
2020/12/04 11:56:54;;;;;;;18.87;12.23;;;5.60;99.90;;;;;;5030327;28;20179;-67
2020/12/04 11:59:20;;;;;;;17.30;13.50;;;5.60;99.90;;;;;;5026968;28;20178;-68
2020/12/04 12:01:46;;;;;;;22.80;14.73;;;5.70;99.90;;;;;;5030406;28;20206;-71
2020/12/04 12:04:14;;;;;;;17.50;13.53;;;5.60;99.90;;;;;;5028821;28;20198;-70
2020/12/04 12:06:41;;;;;;;21.43;14.20;;;5.60;99.90;;;;;;5014705;28;20437;-70
2020/12/04 12:09:07;;;;;;;18.77;11.23;;;5.50;99.90;;;;;;5019083;28;20436;-70
2020/12/04 12:11:33;;;;;;;23.10;11.43;;;5.50;99.90;;;;;;5026685;28;21032;-68
2020/12/04 12:14:33;;;;;;;17.47;12.87;;;5.60;99.90;;;;;;5016931;28;20434;-67
2020/12/04 12:16:59;;;;;;;19.07;12.73;;;5.60;99.90;;;;;;5010233;28;20660;-67
2020/12/04 12:19:24;;;;;;;22.77;15.00;;;5.60;99.90;;;;;;5022911;28;20439;-68
2020/12/04 12:21:50;;;;;;;22.23;13.60;;;5.70;99.90;;;;;;5017196;28;20230;-67
2020/12/04 12:24:16;;;;;;;16.90;13.20;;;5.70;99.90;;;;;;5021122;28;20239;-71
2020/12/04 12:26:42;;;;;;;17.13;12.40;;;5.80;99.90;;;;;;5019080;28;20179;-71
2020/12/04 12:29:08;;;;;;;18.07;12.07;;;5.80;99.90;;;;;;5027316;28;20196;-71
2020/12/04 12:31:36;;;;;;;21.23;13.50;;;5.80;99.90;;;;;;5015409;28;20449;-71
2020/12/04 12:34:03;;;;;;;20.30;13.13;;;5.70;99.90;;;;;;5022006;28;20178;-71
2020/12/04 12:36:31;;;;;;;17.40;14.37;;;5.80;99.90;;;;;;5011580;28;20445;-71
2020/12/04 12:38:58;;;;;;;20.93;13.53;;;5.90;99.90;;;;;;5014139;28;20463;-71